Kununurra Airport
YPKU : now visible

Airfield :











YOU CAN JOIN US ON...

 
LOGIN :

Register | Disclaimer

   EN    FR    IT 

 









Legend :    VFR   Marginal VFR   IFR   Intensive IFR   Very Intensive IFR
Visi :
Ceiling :
>= 8 km
>= 3000ft
5 to 8 km
1000 to 3000 ft
1500m to 5 km
500 to 1000 ft
800 to 1500m
200 to 500 ft
< 800m
< 200 ft
Symbols :   Thunderstorms  Fog  Heavy snow  Heavy precipitations  Wind > 20 kt






- Airport Elevation : 145 ft
- IATA code : KNX


YPKU - Kununurra

CURRENT METAR :
  • 200630Z AUTO 02011KT 9999 // NCD 34/25 Q1006 RF00.0/000.0

EXPIRED METARs :
  • 200600Z AUTO 02012KT 9999 // NCD 34/25 Q1007 RF00.0/000.0
  • 200530Z AUTO 02011KT 9999 // SCT049 34/24 Q1007 RF00.0/000.0
  • 200500Z AUTO 02009KT 9999 // SCT045 SCT052 33/25 Q1007
  • 200430Z AUTO 01010KT 9999 // SCT043 SCT048 33/25 Q1007
  • 200400Z AUTO 01012KT 9999 // NCD 33/25 Q1008 RF00.0/000.0
  • 200330Z AUTO 02009KT 360V060 9999 // SCT038 32/25 Q1008

TAF AMD TAF YPKU
Valid from the 20 at 02:00 until the 20 at 14:00 UTC


200027Z 2002/2014 04008KT 9999 -SHRA SCT040 INTER 2002/2014 3000 SHRA BKN015
PROB30
TEMPO 2002/2014 VRB20G40KT 1000 TSRA BKN015 SCT040CB
YBBB FIR / Oceania



MET'MAP, your aeronautical weather chart ! - Copyright ORBIFLY December 2007 - Disclaimer

ORBIFLY MET'MAP TEAM :

Programming & Development : Alexandra Zaïnal
Concept & original design : Baudouin d'Aumeries
Assistance for programming : Marc-Olivier Méhu
Technical & hardware support : Manuel Goepfert

Contact : metmap@orbifly.com




SOURCES & CREDITS :

   NOAA       Earth
Advisory